createdAt,value
2022-08-16T00:00:40.040Z,20.40
2022-08-16T00:03:07.741Z,20.30
2022-08-16T00:05:48.452Z,20.30
2022-08-16T00:08:36.508Z,20.30
2022-08-16T00:11:04.650Z,20.30
2022-08-16T00:13:33.709Z,20.20
2022-08-16T00:17:05.506Z,20.20
2022-08-16T00:18:55.744Z,20.00
2022-08-16T00:21:23.192Z,19.90
2022-08-16T00:23:49.904Z,20.00
2022-08-16T00:26:35.815Z,19.90
2022-08-16T00:29:05.258Z,19.80
2022-08-16T00:31:58.944Z,19.70
2022-08-16T00:34:22.839Z,19.60
2022-08-16T00:37:10.134Z,19.80
2022-08-16T00:39:36.901Z,19.80
2022-08-16T00:42:10.191Z,19.90
2022-08-16T00:44:37.704Z,19.90
2022-08-16T00:47:09.938Z,19.90
2022-08-16T00:49:39.139Z,19.90
2022-08-16T00:52:29.278Z,19.90
2022-08-16T00:54:53.261Z,19.80
2022-08-16T00:57:20.169Z,19.80
2022-08-16T00:59:57.446Z,19.80
2022-08-16T01:02:30.829Z,19.80
2022-08-16T01:05:09.108Z,19.80
2022-08-16T01:07:50.561Z,19.70
2022-08-16T01:10:32.226Z,19.70
2022-08-16T01:13:29.986Z,19.60
2022-08-16T01:16:10.631Z,19.60
2022-08-16T01:19:02.580Z,19.60
2022-08-16T01:21:49.915Z,19.50
2022-08-16T01:24:53.377Z,19.40
2022-08-16T01:27:22.431Z,19.40
2022-08-16T01:30:00.947Z,19.50
2022-08-16T01:32:34.523Z,19.30
2022-08-16T01:35:06.752Z,19.30
2022-08-16T01:37:42.843Z,19.20
2022-08-16T01:40:10.396Z,19.20
2022-08-16T01:42:37.460Z,19.20
2022-08-16T01:45:09.340Z,19.10
2022-08-16T01:47:38.765Z,19.00
2022-08-16T01:50:42.710Z,19.10
2022-08-16T01:53:04.352Z,19.00
2022-08-16T01:55:35.750Z,19.20
2022-08-16T01:58:02.962Z,19.20
2022-08-16T02:00:29.999Z,19.30
2022-08-16T02:02:57.285Z,19.20
2022-08-16T02:05:24.090Z,19.20
2022-08-16T02:07:51.990Z,19.10
2022-08-16T02:10:19.157Z,19.20
2022-08-16T02:12:51.394Z,19.30
2022-08-16T02:15:26.073Z,19.30
2022-08-16T02:17:58.282Z,19.20
2022-08-16T02:20:28.183Z,19.20
2022-08-16T02:22:59.592Z,19.30
2022-08-16T02:25:51.098Z,19.30
2022-08-16T02:28:19.197Z,19.30
2022-08-16T02:30:50.815Z,19.30
2022-08-16T02:33:19.440Z,19.30
2022-08-16T02:35:54.063Z,19.30
2022-08-16T02:38:26.287Z,19.20
2022-08-16T02:40:54.660Z,19.20
2022-08-16T02:43:26.891Z,19.20
2022-08-16T02:45:54.572Z,19.20
2022-08-16T02:48:28.494Z,19.00
2022-08-16T02:51:06.398Z,19.00
2022-08-16T02:53:43.963Z,19.00
2022-08-16T02:56:15.064Z,18.90
2022-08-16T02:58:44.190Z,19.00
2022-08-16T03:01:24.357Z,19.00
2022-08-16T03:04:40.022Z,19.00
2022-08-16T03:06:43.389Z,18.90
2022-08-16T03:09:15.049Z,18.80
2022-08-16T03:11:43.525Z,18.80
2022-08-16T03:14:11.417Z,18.80
2022-08-16T03:16:42.151Z,18.60
2022-08-16T03:19:25.848Z,18.50
2022-08-16T03:22:12.505Z,18.60
2022-08-16T03:24:54.772Z,18.50
2022-08-16T03:27:24.357Z,18.50
2022-08-16T03:29:54.388Z,18.40
2022-08-16T03:32:21.696Z,18.30
2022-08-16T03:34:49.917Z,18.40
2022-08-16T03:37:17.449Z,18.40
2022-08-16T03:39:44.334Z,18.20
2022-08-16T03:42:11.059Z,18.20
2022-08-16T03:44:47.720Z,18.20
2022-08-16T03:47:19.191Z,18.10
2022-08-16T03:49:51.499Z,18.10
2022-08-16T03:52:23.452Z,18.10
2022-08-16T03:54:53.568Z,18.20
2022-08-16T03:57:31.762Z,18.20
2022-08-16T04:00:20.752Z,18.30
2022-08-16T04:03:07.254Z,18.30
2022-08-16T04:05:46.730Z,18.30
2022-08-16T04:08:22.764Z,18.30
2022-08-16T04:10:52.750Z,18.30
2022-08-16T04:13:20.976Z,18.20
2022-08-16T04:16:06.929Z,18.20
2022-08-16T04:18:36.769Z,18.30
2022-08-16T04:21:03.811Z,18.30
2022-08-16T04:23:30.762Z,18.40
2022-08-16T04:25:58.152Z,18.50
2022-08-16T04:28:54.656Z,18.50
2022-08-16T04:31:15.596Z,18.50
2022-08-16T04:33:50.680Z,18.50
2022-08-16T04:36:20.088Z,18.50
2022-08-16T04:38:47.385Z,18.50
2022-08-16T04:41:17.256Z,18.50
2022-08-16T04:43:44.302Z,18.50
2022-08-16T04:46:19.798Z,18.40
2022-08-16T04:49:03.695Z,18.40
2022-08-16T04:51:36.101Z,18.40
2022-08-16T04:54:03.569Z,18.40
2022-08-16T04:56:30.713Z,18.40
2022-08-16T04:58:57.975Z,18.50
2022-08-16T05:01:55.873Z,18.50
2022-08-16T05:04:19.593Z,18.60
2022-08-16T05:06:46.779Z,18.60
2022-08-16T05:09:18.803Z,18.70
2022-08-16T05:11:49.707Z,18.70
2022-08-16T05:14:20.273Z,18.80
2022-08-16T05:17:04.427Z,18.70
2022-08-16T05:19:35.870Z,18.40
2022-08-16T05:22:03.384Z,18.40
2022-08-16T05:24:31.363Z,18.40
2022-08-16T05:26:58.047Z,18.50
2022-08-16T05:29:24.911Z,18.60
2022-08-16T05:32:32.952Z,18.50
2022-08-16T05:34:58.110Z,18.50
2022-08-16T05:37:26.574Z,18.50
2022-08-16T05:39:55.730Z,18.50
2022-08-16T05:42:22.465Z,18.60
2022-08-16T05:45:06.969Z,18.60
2022-08-16T05:47:33.977Z,18.50
2022-08-16T05:50:10.231Z,18.50
2022-08-16T05:52:46.155Z,18.50
2022-08-16T05:55:13.641Z,18.60
2022-08-16T05:57:40.415Z,18.50
2022-08-16T06:00:11.813Z,18.60
2022-08-16T06:02:38.520Z,18.60
2022-08-16T06:05:06.435Z,18.60
2022-08-16T06:07:37.617Z,18.80
2022-08-16T06:10:05.840Z,18.80
2022-08-16T06:12:33.014Z,18.90
2022-08-16T06:15:07.753Z,19.10
2022-08-16T06:17:43.344Z,19.20
2022-08-16T06:20:14.254Z,19.30
2022-08-16T06:22:40.942Z,19.40
2022-08-16T06:25:12.818Z,19.60
2022-08-16T06:27:42.151Z,19.80
2022-08-16T06:30:24.522Z,19.90
2022-08-16T06:32:56.236Z,20.10
2022-08-16T06:35:23.870Z,20.20
2022-08-16T06:37:51.516Z,20.30
2022-08-16T06:40:19.572Z,20.40
2022-08-16T06:42:47.740Z,20.60
2022-08-16T06:45:15.516Z,20.80
2022-08-16T06:47:53.169Z,20.80
2022-08-16T06:50:28.534Z,20.80
2022-08-16T06:53:00.535Z,21.10
2022-08-16T06:55:33.591Z,21.30
2022-08-16T06:58:02.144Z,21.40
2022-08-16T07:00:35.522Z,21.50
2022-08-16T07:03:26.856Z,21.60
2022-08-16T07:05:53.881Z,21.70
2022-08-16T07:08:21.055Z,22.00
2022-08-16T07:10:48.025Z,22.00
2022-08-16T07:13:26.583Z,22.20
2022-08-16T07:16:04.077Z,22.30
2022-08-16T07:18:32.000Z,22.50
2022-08-16T07:21:02.144Z,22.60
2022-08-16T07:23:37.270Z,22.60
2022-08-16T07:26:09.747Z,22.60
2022-08-16T07:28:37.465Z,22.70
2022-08-16T07:31:05.035Z,22.80
2022-08-16T07:33:53.571Z,22.90
2022-08-16T07:36:22.752Z,23.00
2022-08-16T07:38:50.163Z,23.10
2022-08-16T07:41:17.553Z,23.50
2022-08-16T07:43:46.128Z,23.40
2022-08-16T07:46:39.589Z,23.70
2022-08-16T07:49:04.442Z,23.70
2022-08-16T07:51:35.561Z,23.70
2022-08-16T07:54:09.861Z,23.80
2022-08-16T07:56:37.951Z,23.90
2022-08-16T07:59:06.659Z,23.90
2022-08-16T08:01:35.014Z,24.00
2022-08-16T08:04:03.779Z,24.20
2022-08-16T08:06:32.867Z,24.40
2022-08-16T08:09:00.759Z,24.40
2022-08-16T08:11:30.049Z,24.50
2022-08-16T08:14:03.693Z,24.50
2022-08-16T08:16:33.868Z,24.70
2022-08-16T08:19:03.130Z,24.70
2022-08-16T08:21:58.285Z,24.90
2022-08-16T08:24:19.622Z,25.00
2022-08-16T08:26:50.276Z,25.20
2022-08-16T08:29:22.996Z,25.20
2022-08-16T08:31:52.457Z,25.00
2022-08-16T08:34:21.148Z,25.20
2022-08-16T08:36:50.106Z,25.20
2022-08-16T08:39:22.160Z,25.30
2022-08-16T08:41:49.565Z,25.20
2022-08-16T08:44:28.804Z,25.30
2022-08-16T08:47:00.319Z,25.80
2022-08-16T08:49:46.962Z,26.10
2022-08-16T08:52:34.603Z,26.20
2022-08-16T08:55:10.256Z,26.40
2022-08-16T08:57:43.228Z,26.10
2022-08-16T09:00:13.784Z,25.70
2022-08-16T09:02:45.530Z,26.20
2022-08-16T09:05:20.123Z,26.40
2022-08-16T09:08:01.021Z,26.60
2022-08-16T09:10:33.738Z,26.30
2022-08-16T09:13:01.235Z,26.60
2022-08-16T09:15:32.978Z,26.40
2022-08-16T09:18:02.022Z,26.50
2022-08-16T09:20:58.531Z,26.70
2022-08-16T09:23:27.745Z,27.10
2022-08-16T09:25:54.641Z,27.00
2022-08-16T09:29:06.737Z,27.30
2022-08-16T09:31:08.344Z,27.50
2022-08-16T09:33:39.896Z,27.40
2022-08-16T09:36:12.201Z,27.50
2022-08-16T09:38:59.763Z,27.20
2022-08-16T09:41:28.128Z,26.90
2022-08-16T09:43:59.796Z,27.00
2022-08-16T09:46:48.540Z,26.90
2022-08-16T09:49:16.718Z,27.00
2022-08-16T09:51:48.237Z,27.20
2022-08-16T09:54:20.726Z,27.20
2022-08-16T09:56:53.168Z,27.50
2022-08-16T09:59:23.051Z,27.50
2022-08-16T10:01:51.059Z,27.70
2022-08-16T10:04:31.446Z,27.60
2022-08-16T10:07:02.096Z,27.40
2022-08-16T10:09:54.091Z,27.30
2022-08-16T10:12:35.102Z,27.00
2022-08-16T10:15:17.145Z,27.00
2022-08-16T10:18:01.134Z,27.10
2022-08-16T10:20:34.879Z,27.10
2022-08-16T10:23:08.452Z,27.10
2022-08-16T10:27:16.843Z,26.50
2022-08-16T10:28:32.389Z,26.60
2022-08-16T10:31:06.160Z,26.70
2022-08-16T10:33:34.431Z,27.20
2022-08-16T10:36:06.230Z,27.30
2022-08-16T10:38:37.171Z,27.40
2022-08-16T10:41:08.056Z,27.30
2022-08-16T10:43:38.520Z,27.50
2022-08-16T10:46:39.959Z,27.50
2022-08-16T10:48:55.019Z,27.80
2022-08-16T10:51:33.853Z,27.10
2022-08-16T10:54:28.595Z,27.40
2022-08-16T10:56:57.633Z,27.80
2022-08-16T10:59:39.188Z,27.80
2022-08-16T11:02:58.780Z,27.90
2022-08-16T11:05:08.682Z,27.50
2022-08-16T11:07:45.401Z,27.70
2022-08-16T11:19:04.145Z,28.20
2022-08-16T11:21:33.616Z,28.40
2022-08-16T11:24:01.866Z,28.50
2022-08-16T11:26:30.736Z,28.70
2022-08-16T11:29:14.561Z,28.70
2022-08-16T11:31:45.719Z,28.60
2022-08-16T11:34:21.152Z,28.40
2022-08-16T11:36:53.515Z,28.60
2022-08-16T11:39:27.412Z,28.50
2022-08-16T11:41:55.516Z,28.60
2022-08-16T11:44:52.203Z,28.80
2022-08-16T11:47:09.600Z,28.60
2022-08-16T11:49:36.343Z,28.70
2022-08-16T11:52:03.448Z,28.80
2022-08-16T11:54:33.315Z,28.50
2022-08-16T11:57:04.165Z,28.50
2022-08-16T11:59:39.805Z,28.60
2022-08-16T12:02:32.656Z,28.70
2022-08-16T12:04:55.171Z,29.10
2022-08-16T12:07:23.807Z,28.90
2022-08-16T12:09:53.268Z,29.10
2022-08-16T12:12:21.099Z,29.60
2022-08-16T12:15:00.140Z,29.10
2022-08-16T12:17:31.557Z,29.10
2022-08-16T12:19:59.777Z,29.20
2022-08-16T12:22:27.457Z,29.20
2022-08-16T12:24:54.207Z,29.40
2022-08-16T12:27:25.170Z,29.60
2022-08-16T12:29:53.539Z,29.90
2022-08-16T12:32:38.598Z,29.90
2022-08-16T12:35:10.137Z,30.20
2022-08-16T12:37:37.039Z,30.20
2022-08-16T12:40:23.702Z,30.30
2022-08-16T12:42:54.061Z,29.90
2022-08-16T12:45:22.705Z,30.00
2022-08-16T12:48:32.643Z,30.10
2022-08-16T12:50:57.095Z,30.00
2022-08-16T12:53:24.530Z,30.40
2022-08-16T12:55:51.920Z,30.50
2022-08-16T12:58:49.742Z,30.20
2022-08-16T13:01:08.526Z,30.20
2022-08-16T13:03:40.640Z,30.10
2022-08-16T13:06:08.579Z,29.50
2022-08-16T13:08:35.307Z,29.50
2022-08-16T13:11:04.557Z,29.00
2022-08-16T13:13:35.392Z,29.10
2022-08-16T13:16:15.909Z,29.40
2022-08-16T13:18:52.623Z,29.80
2022-08-16T13:21:20.128Z,30.00
2022-08-16T13:23:51.210Z,30.40
2022-08-16T13:26:22.502Z,30.50
2022-08-16T13:28:50.094Z,30.60
2022-08-16T13:31:17.114Z,30.50
2022-08-16T13:33:44.502Z,30.20
2022-08-16T13:36:21.155Z,30.10
2022-08-16T13:38:59.898Z,30.20
2022-08-16T13:41:30.365Z,30.20
2022-08-16T13:43:59.326Z,30.40
2022-08-16T13:46:26.869Z,30.30
2022-08-16T13:48:53.619Z,30.60
2022-08-16T13:51:23.773Z,30.80
2022-08-16T13:53:59.150Z,30.70
2022-08-16T13:56:36.990Z,30.60
2022-08-16T13:59:19.769Z,30.90
2022-08-16T14:01:55.891Z,30.80
2022-08-16T14:04:28.964Z,30.80
2022-08-16T14:06:57.504Z,30.60
2022-08-16T14:09:24.958Z,30.70
2022-08-16T14:11:54.431Z,30.50
2022-08-16T14:14:28.832Z,30.40
2022-08-16T14:17:01.256Z,30.40
2022-08-16T14:19:29.410Z,30.60
2022-08-16T14:22:14.379Z,30.80
2022-08-16T14:24:47.655Z,31.10
2022-08-16T14:27:21.133Z,31.10
2022-08-16T14:29:49.833Z,30.80
2022-08-16T14:32:32.824Z,31.00
2022-08-16T14:35:04.028Z,30.50
2022-08-16T14:37:31.061Z,30.20
2022-08-16T14:39:59.120Z,29.90
2022-08-16T14:42:26.249Z,29.80
2022-08-16T14:44:54.107Z,29.80
2022-08-16T14:47:22.221Z,30.10
2022-08-16T14:49:49.721Z,30.20
2022-08-16T14:52:44.679Z,30.30
2022-08-16T14:55:09.679Z,30.30
2022-08-16T14:57:39.632Z,30.20
2022-08-16T15:00:09.502Z,30.40
2022-08-16T15:02:38.893Z,30.50
2022-08-16T15:05:09.909Z,30.40
2022-08-16T15:07:40.208Z,30.40
2022-08-16T15:10:21.677Z,30.60
2022-08-16T15:12:57.990Z,30.60
2022-08-16T15:15:27.553Z,30.50
2022-08-16T15:17:56.464Z,30.60
2022-08-16T15:20:29.582Z,30.70
2022-08-16T15:22:58.026Z,30.50
2022-08-16T15:25:30.118Z,30.50
2022-08-16T15:28:04.688Z,30.50
2022-08-16T15:30:56.868Z,30.10
2022-08-16T15:33:25.359Z,30.30
2022-08-16T15:35:55.559Z,30.50
2022-08-16T15:38:54.968Z,30.40
2022-08-16T15:41:32.954Z,30.50
2022-08-16T15:44:04.755Z,30.40
2022-08-16T15:46:55.417Z,30.20
2022-08-16T15:49:25.167Z,30.50
2022-08-16T15:52:01.298Z,30.60
2022-08-16T15:54:32.640Z,30.30
2022-08-16T15:57:11.668Z,30.30
2022-08-16T15:59:48.731Z,30.40
2022-08-16T16:02:29.163Z,30.40
2022-08-16T16:05:02.417Z,30.50
2022-08-16T16:07:31.929Z,30.60
2022-08-16T16:10:00.257Z,30.60
2022-08-16T16:12:51.582Z,30.50
2022-08-16T16:15:20.136Z,30.50
2022-08-16T16:17:51.181Z,30.50
2022-08-16T16:20:20.829Z,30.40
2022-08-16T16:22:49.234Z,30.60
2022-08-16T16:25:18.369Z,30.60
2022-08-16T16:27:46.482Z,30.40
2022-08-16T16:30:32.556Z,30.50
2022-08-16T16:33:05.446Z,30.60
2022-08-16T16:35:35.033Z,30.50
2022-08-16T16:38:02.534Z,30.40
2022-08-16T16:40:38.823Z,30.50
2022-08-16T16:43:16.132Z,30.60
2022-08-16T16:45:43.763Z,30.70
2022-08-16T16:48:12.724Z,30.60
2022-08-16T16:50:43.642Z,30.70
2022-08-16T16:53:17.036Z,30.70
2022-08-16T16:55:47.733Z,30.60
2022-08-16T16:58:38.670Z,30.60
2022-08-16T17:01:08.025Z,30.60
2022-08-16T17:03:35.432Z,30.40
2022-08-16T17:06:09.279Z,30.30
2022-08-16T17:08:37.841Z,30.40
2022-08-16T17:11:08.133Z,30.10
2022-08-16T17:13:35.110Z,30.20
2022-08-16T17:16:02.236Z,30.30
2022-08-16T17:19:16.975Z,30.30
2022-08-16T17:21:17.735Z,30.20
2022-08-16T17:23:58.642Z,30.30
2022-08-16T17:26:29.995Z,30.30
2022-08-16T17:29:02.435Z,30.20
2022-08-16T17:31:41.123Z,30.30
2022-08-16T17:34:28.852Z,30.00
2022-08-16T17:39:27.265Z,29.90
2022-08-16T17:40:00.495Z,29.90
2022-08-16T17:42:30.706Z,30.00
2022-08-16T17:44:57.441Z,29.90
2022-08-16T17:47:24.572Z,29.90
2022-08-16T17:49:52.040Z,29.80
2022-08-16T17:52:18.949Z,29.70
2022-08-16T17:54:45.703Z,29.60
2022-08-16T17:57:12.909Z,29.60
2022-08-16T17:59:41.335Z,29.60
2022-08-16T18:02:41.096Z,29.40
2022-08-16T18:04:55.845Z,29.30
2022-08-16T18:07:22.754Z,29.00
2022-08-16T18:09:50.007Z,28.90
2022-08-16T18:12:51.756Z,29.00
2022-08-16T18:15:12.739Z,28.90
2022-08-16T18:17:39.596Z,28.90
2022-08-16T18:20:29.044Z,28.80
2022-08-16T18:23:10.212Z,28.80
2022-08-16T18:25:52.850Z,28.70
2022-08-16T18:28:20.192Z,28.70
2022-08-16T18:30:51.697Z,28.70
2022-08-16T18:33:21.804Z,28.40
2022-08-16T18:35:54.313Z,28.50
2022-08-16T18:38:23.834Z,28.30
2022-08-16T18:40:50.571Z,28.30
2022-08-16T18:43:19.919Z,28.10
2022-08-16T18:45:49.830Z,28.10
2022-08-16T18:48:17.990Z,28.00
2022-08-16T18:51:04.025Z,27.90
2022-08-16T18:53:34.228Z,27.80
2022-08-16T18:56:03.211Z,27.70
2022-08-16T18:58:33.788Z,27.70
2022-08-16T19:01:00.546Z,27.70
2022-08-16T19:03:32.253Z,27.60
2022-08-16T19:05:58.891Z,27.40
2022-08-16T19:08:25.756Z,27.50
2022-08-16T19:10:53.514Z,27.40
2022-08-16T19:13:23.459Z,27.40
2022-08-16T19:15:52.164Z,27.20
2022-08-16T19:18:19.461Z,27.20
2022-08-16T19:20:47.311Z,27.00
2022-08-16T19:23:17.974Z,27.00
2022-08-16T19:25:49.462Z,26.90
2022-08-16T19:28:49.914Z,26.90
2022-08-16T19:31:30.958Z,26.80
2022-08-16T19:33:58.417Z,26.70
2022-08-16T19:36:36.171Z,26.70
2022-08-16T19:39:09.047Z,26.80
2022-08-16T19:41:39.157Z,26.90
2022-08-16T19:44:07.181Z,26.80
2022-08-16T19:46:34.346Z,26.80
2022-08-16T19:49:01.106Z,26.60
2022-08-16T19:51:28.200Z,26.60
2022-08-16T19:53:54.903Z,26.50
2022-08-16T19:56:23.698Z,26.30
2022-08-16T19:59:16.419Z,26.10
2022-08-16T20:01:41.956Z,26.20
2022-08-16T20:04:12.104Z,26.20
2022-08-16T20:06:39.651Z,26.20
2022-08-16T20:09:06.875Z,26.10
2022-08-16T20:11:35.066Z,26.00
2022-08-16T20:14:02.512Z,26.00
2022-08-16T20:16:29.507Z,26.00
2022-08-16T20:18:56.287Z,26.00
2022-08-16T20:21:23.117Z,25.90
2022-08-16T20:23:49.873Z,25.90
2022-08-16T20:26:18.440Z,25.80
2022-08-16T20:28:54.021Z,25.80
2022-08-16T20:31:23.690Z,25.70
2022-08-16T20:33:51.371Z,25.70
2022-08-16T20:36:18.075Z,25.70
2022-08-16T20:38:47.396Z,25.60
2022-08-16T20:41:15.461Z,25.30
2022-08-16T20:43:42.312Z,25.30
2022-08-16T20:46:09.110Z,25.30
2022-08-16T20:48:35.987Z,25.40
2022-08-16T20:51:02.727Z,25.30
2022-08-16T20:53:29.598Z,25.30
2022-08-16T20:55:56.669Z,25.30
2022-08-16T20:58:23.459Z,25.20
2022-08-16T21:00:50.482Z,25.10
2022-08-16T21:03:17.302Z,24.90
2022-08-16T21:05:45.284Z,24.80
2022-08-16T21:08:50.843Z,24.90
2022-08-16T21:11:02.804Z,24.90
2022-08-16T21:13:32.636Z,24.80
2022-08-16T21:16:00.919Z,24.80
2022-08-16T21:18:27.885Z,24.70
2022-08-16T21:20:54.931Z,24.70
2022-08-16T21:23:21.970Z,24.70
2022-08-16T21:25:58.875Z,24.70
2022-08-16T21:28:39.106Z,24.70
2022-08-16T21:31:13.665Z,24.50
2022-08-16T21:33:40.903Z,24.50
2022-08-16T21:36:08.532Z,24.50
2022-08-16T21:38:35.238Z,24.50
2022-08-16T21:41:04.413Z,24.40
2022-08-16T21:43:33.248Z,24.30
2022-08-16T21:46:02.340Z,24.30
2022-08-16T21:48:33.481Z,24.20
2022-08-16T21:51:07.534Z,24.10
2022-08-16T21:53:35.512Z,24.20
2022-08-16T21:56:03.282Z,24.00
2022-08-16T21:58:30.767Z,24.00
2022-08-16T22:00:57.712Z,24.00
2022-08-16T22:03:25.088Z,24.00
2022-08-16T22:06:11.546Z,23.90
2022-08-16T22:08:46.739Z,23.90
2022-08-16T22:11:22.710Z,23.90
2022-08-16T22:13:57.452Z,23.90
2022-08-16T22:16:28.800Z,23.80
2022-08-16T22:18:55.728Z,23.60
2022-08-16T22:21:22.429Z,23.60
2022-08-16T22:23:57.669Z,23.60
2022-08-16T22:26:32.121Z,23.60
2022-08-16T22:29:05.320Z,23.60
2022-08-16T22:31:33.101Z,23.60
2022-08-16T22:34:01.750Z,23.50
2022-08-16T22:36:29.669Z,23.50
2022-08-16T22:39:01.844Z,23.50
2022-08-16T22:41:31.500Z,23.40
2022-08-16T22:43:59.498Z,23.50
2022-08-16T22:46:26.276Z,23.40
2022-08-16T22:48:53.007Z,23.40
2022-08-16T22:51:21.478Z,23.40
2022-08-16T22:53:48.397Z,23.30
2022-08-16T22:56:17.829Z,23.30
2022-08-16T22:58:45.879Z,23.30
2022-08-16T23:01:14.878Z,23.10
2022-08-16T23:03:42.539Z,23.10
2022-08-16T23:06:12.380Z,23.00
2022-08-16T23:08:41.278Z,23.10
2022-08-16T23:11:22.597Z,23.10
2022-08-16T23:13:53.664Z,23.00
2022-08-16T23:16:32.736Z,22.90
2022-08-16T23:19:03.113Z,22.90
2022-08-16T23:21:29.922Z,22.70
2022-08-16T23:23:56.612Z,22.60
2022-08-16T23:26:47.263Z,22.50
2022-08-16T23:29:15.844Z,22.70
2022-08-16T23:31:50.027Z,22.50
2022-08-16T23:34:20.587Z,22.40
2022-08-16T23:36:47.263Z,22.50
2022-08-16T23:39:13.933Z,22.50
2022-08-16T23:41:40.645Z,22.50
2022-08-16T23:44:44.134Z,22.60
2022-08-16T23:46:54.565Z,22.60
2022-08-16T23:49:57.857Z,22.60
2022-08-16T23:52:09.391Z,22.40
2022-08-16T23:54:36.199Z,22.40
2022-08-16T23:57:03.068Z,22.40
2022-08-16T23:59:29.802Z,22.40
